Terminal Aerodrome Forecast
Issued by NWS

Current Version | Previous Version | Graphics & Text | Print | Product List | Glossary On
Versions: 1 2 3 4 5 6 7 8 9 10 11 12 13 14 15 16 17 18 19 20 21 22 23 24 25 26 27 28 29
000
FTUS41 KRLX 221126
TAFCKB
TAF
KCKB 221126Z 2212/2312 01005KT P6SM VCSH OVC004
     FM221500 02005KT 2SM SHRA OVC008
     FM221800 33004KT 5SM SHRA OVC010
     FM222100 01004KT P6SM BKN015
     FM230700 VRB03KT 3SM -SHRA BR BKN007=

USA.gov is the U.S. government's official web portal to all federal, state and local government web resources and services.